Schedule Details


Flight Number: CTN656
Departure: Franjo Tudman (LDZA) at 22:05
Arrival: Kastela (LDSP) at 22:50
Route: NIVES Y137 PALEZ L862 OKLAX

Weather Information
LDZA 251300Z 11003KT 060V150 CAVOK 06/02 Q1023 NOSIG
LDSP 251300Z 11010KT 070V130 9999 FEW017 SCT023 OVC037 13/10 Q1023 NOSIG
Schedule Frequency

Route Map